createdAt,value
2022-08-09T00:01:10.204Z,52.11
2022-08-09T00:04:00.778Z,52.38
2022-08-09T00:06:23.651Z,52.02
2022-08-09T00:08:50.431Z,52.37
2022-08-09T00:11:25.184Z,52.41
2022-08-09T00:13:54.096Z,52.51
2022-08-09T00:16:26.210Z,52.77
2022-08-09T00:19:03.276Z,52.60
2022-08-09T00:21:35.902Z,52.83
2022-08-09T00:24:02.202Z,52.61
2022-08-09T00:26:29.828Z,52.67
2022-08-09T00:28:59.297Z,53.54
2022-08-09T00:31:58.304Z,53.16
2022-08-09T00:34:12.488Z,52.95
2022-08-09T00:36:41.548Z,52.83
2022-08-09T00:39:16.803Z,53.06
2022-08-09T00:44:16.493Z,52.88
2022-08-09T00:44:40.809Z,53.02
2022-08-09T00:47:07.632Z,53.40
2022-08-09T00:49:36.596Z,53.38
2022-08-09T00:52:05.493Z,53.08
2022-08-09T00:54:43.095Z,53.66
2022-08-09T00:57:11.293Z,53.99
2022-08-09T00:59:40.995Z,54.03
2022-08-09T01:02:12.410Z,53.94
2022-08-09T01:04:39.394Z,54.54
2022-08-09T01:07:13.847Z,54.86
2022-08-09T01:09:40.379Z,55.07
2022-08-09T01:12:06.691Z,55.37
2022-08-09T01:14:34.969Z,55.06
2022-08-09T01:17:01.280Z,56.17
2022-08-09T01:19:40.031Z,56.02
2022-08-09T01:22:16.452Z,56.41
2022-08-09T01:24:44.104Z,56.88
2022-08-09T01:27:17.805Z,56.76
2022-08-09T01:29:55.991Z,56.68
2022-08-09T01:32:32.093Z,56.42
2022-08-09T01:35:00.584Z,56.51
2022-08-09T01:38:08.174Z,56.55
2022-08-09T01:40:30.713Z,56.57
2022-08-09T01:42:57.949Z,56.51
2022-08-09T01:45:24.822Z,56.33
2022-08-09T01:47:51.208Z,56.45
2022-08-09T01:50:17.862Z,56.60
2022-08-09T01:52:56.335Z,56.84
2022-08-09T01:55:22.617Z,56.88
2022-08-09T01:57:50.693Z,56.76
2022-08-09T02:00:35.958Z,56.67
2022-08-09T02:03:02.915Z,56.73
2022-08-09T02:05:38.069Z,57.00
2022-08-09T02:08:40.229Z,57.46
2022-08-09T02:11:02.364Z,57.59
2022-08-09T02:13:40.388Z,57.48
2022-08-09T02:16:07.052Z,57.46
2022-08-09T02:18:34.963Z,57.43
2022-08-09T02:21:01.256Z,57.67
2022-08-09T02:23:27.556Z,57.74
2022-08-09T02:25:58.426Z,58.58
2022-08-09T02:28:26.397Z,58.51
2022-08-09T02:30:53.687Z,58.66
2022-08-09T02:33:20.405Z,58.51
2022-08-09T02:36:02.729Z,58.78
2022-08-09T02:38:30.590Z,58.45
2022-08-09T02:40:56.909Z,58.71
2022-08-09T02:43:23.378Z,58.96
2022-08-09T02:45:55.180Z,59.01
2022-08-09T02:48:31.215Z,58.98
2022-08-09T02:50:58.102Z,59.02
2022-08-09T02:53:26.318Z,59.39
2022-08-09T02:55:58.382Z,59.90
2022-08-09T02:58:36.433Z,59.95
2022-08-09T03:01:06.103Z,59.81
2022-08-09T03:04:12.200Z,60.03
2022-08-09T03:06:19.106Z,59.76
2022-08-09T03:08:48.142Z,60.04
2022-08-09T03:11:15.490Z,60.52
2022-08-09T03:14:01.982Z,60.18
2022-08-09T03:16:28.301Z,60.53
2022-08-09T03:18:55.609Z,60.66
2022-08-09T03:21:25.942Z,60.99
2022-08-09T03:24:03.981Z,60.83
2022-08-09T03:26:32.182Z,60.60
2022-08-09T03:28:59.280Z,60.44
2022-08-09T03:31:25.675Z,59.88
2022-08-09T03:33:54.205Z,60.20
2022-08-09T03:36:21.320Z,60.40
2022-08-09T03:38:54.204Z,60.20
2022-08-09T03:41:20.498Z,59.95
2022-08-09T03:44:08.566Z,59.90
2022-08-09T03:46:35.328Z,60.24
2022-08-09T03:49:03.958Z,60.27
2022-08-09T03:51:55.222Z,59.98
2022-08-09T03:54:29.712Z,60.33
2022-08-09T03:56:57.725Z,60.04
2022-08-09T03:59:27.522Z,60.02
2022-08-09T04:02:09.727Z,59.92
2022-08-09T04:04:38.680Z,60.09
2022-08-09T04:07:05.347Z,60.15
2022-08-09T04:09:41.984Z,60.24
2022-08-09T04:12:30.058Z,59.89
2022-08-09T04:15:02.118Z,59.86
2022-08-09T04:17:37.595Z,59.98
2022-08-09T04:20:05.649Z,59.99
2022-08-09T04:22:33.762Z,59.86
2022-08-09T04:25:00.120Z,60.12
2022-08-09T04:27:29.121Z,59.78
2022-08-09T04:29:55.525Z,59.92
2022-08-09T04:32:31.321Z,60.03
2022-08-09T04:34:58.022Z,60.74
2022-08-09T04:37:24.351Z,61.01
2022-08-09T04:40:11.433Z,60.41
2022-08-09T04:42:45.722Z,60.12
2022-08-09T04:45:14.857Z,60.10
2022-08-09T04:47:59.474Z,60.21
2022-08-09T04:50:35.007Z,59.93
2022-08-09T04:53:11.616Z,59.61
2022-08-09T04:55:57.298Z,59.14
2022-08-09T04:58:25.006Z,58.55
2022-08-09T05:00:52.100Z,57.80
2022-08-09T05:03:40.301Z,57.37
2022-08-09T05:06:07.646Z,56.59
2022-08-09T05:08:34.701Z,56.39
2022-08-09T05:11:01.158Z,56.71
2022-08-09T05:13:28.960Z,55.85
2022-08-09T05:15:59.328Z,56.13
2022-08-09T05:18:50.350Z,55.63
2022-08-09T05:21:22.970Z,55.48
2022-08-09T05:23:59.903Z,55.51
2022-08-09T05:26:36.936Z,55.12
2022-08-09T05:29:17.036Z,54.11
2022-08-09T05:31:46.699Z,54.18
2022-08-09T05:34:17.586Z,53.50
2022-08-09T05:36:44.019Z,53.03
2022-08-09T05:39:13.749Z,52.49
2022-08-09T05:41:55.019Z,52.34
2022-08-09T05:44:22.343Z,51.96
2022-08-09T05:46:58.575Z,51.81
2022-08-09T05:50:24.282Z,52.73
2022-08-09T05:52:11.678Z,52.37
2022-08-09T05:54:38.279Z,51.92
2022-08-09T05:57:06.406Z,51.49
2022-08-09T05:59:32.704Z,51.11
2022-08-09T06:01:59.820Z,50.78
2022-08-09T06:04:26.130Z,51.59
2022-08-09T06:07:01.441Z,51.33
2022-08-09T06:09:55.059Z,51.10
2022-08-09T06:12:14.006Z,50.44
2022-08-09T06:14:40.302Z,50.23
2022-08-09T06:17:10.083Z,49.32
2022-08-09T06:19:36.621Z,49.34
2022-08-09T06:22:03.310Z,49.34
2022-08-09T06:24:29.775Z,48.99
2022-08-09T06:26:57.848Z,48.74
2022-08-09T06:29:24.286Z,48.25
2022-08-09T06:32:08.356Z,48.87
2022-08-09T06:34:35.480Z,48.50
2022-08-09T06:37:02.956Z,47.91
2022-08-09T06:39:48.511Z,46.57
2022-08-09T06:42:15.556Z,46.76
2022-08-09T06:44:41.855Z,46.65
2022-08-09T06:47:09.695Z,47.65
2022-08-09T06:50:12.149Z,48.62
2022-08-09T06:52:23.491Z,47.86
2022-08-09T06:54:50.022Z,47.15
2022-08-09T06:57:17.076Z,46.81
2022-08-09T07:00:55.290Z,45.90
2022-08-09T07:02:31.693Z,46.34
2022-08-09T07:04:58.516Z,46.02
2022-08-09T07:07:58.956Z,46.64
2022-08-09T07:10:22.233Z,45.36
2022-08-09T07:12:57.207Z,44.97
2022-08-09T07:16:38.829Z,44.61
2022-08-09T07:18:10.544Z,46.05
2022-08-09T07:20:40.716Z,45.31
2022-08-09T07:23:19.133Z,44.38
2022-08-09T07:25:46.120Z,43.69
2022-08-09T07:28:18.995Z,43.58
2022-08-09T07:30:45.814Z,43.23
2022-08-09T07:33:16.444Z,43.80
2022-08-09T07:35:53.562Z,43.03
2022-08-09T07:38:20.732Z,44.01
2022-08-09T07:41:00.507Z,43.39
2022-08-09T07:43:41.352Z,42.82
2022-08-09T07:46:17.289Z,42.25
2022-08-09T07:48:45.836Z,42.05
2022-08-09T07:52:05.255Z,41.15
2022-08-09T07:54:07.633Z,41.07
2022-08-09T07:56:34.895Z,41.03
2022-08-09T07:59:07.506Z,40.94
2022-08-09T08:01:40.545Z,39.84
2022-08-09T08:04:10.446Z,39.29
2022-08-09T08:06:37.255Z,38.47
2022-08-09T08:09:39.750Z,39.15
2022-08-09T08:12:08.284Z,38.15
2022-08-09T08:14:38.014Z,37.21
2022-08-09T08:17:08.819Z,37.76
2022-08-09T08:19:38.275Z,37.23
2022-08-09T08:22:04.584Z,37.63
2022-08-09T08:24:39.824Z,37.61
2022-08-09T08:27:06.671Z,36.55
2022-08-09T08:29:45.262Z,37.17
2022-08-09T08:32:24.141Z,36.24
2022-08-09T08:34:58.583Z,36.54
2022-08-09T08:37:25.542Z,36.16
2022-08-09T08:40:08.458Z,36.07
2022-08-09T08:42:34.836Z,35.19
2022-08-09T08:45:13.503Z,34.72
2022-08-09T08:47:42.864Z,34.32
2022-08-09T08:50:11.284Z,34.40
2022-08-09T08:52:57.708Z,34.28
2022-08-09T08:55:26.143Z,34.05
2022-08-09T08:57:57.082Z,33.69
2022-08-09T09:00:27.963Z,33.96
2022-08-09T09:02:59.425Z,33.81
2022-08-09T09:05:57.419Z,33.98
2022-08-09T09:08:29.198Z,33.75
2022-08-09T09:10:57.817Z,33.52
2022-08-09T09:13:24.150Z,33.21
2022-08-09T09:16:08.028Z,32.83
2022-08-09T09:18:34.373Z,32.17
2022-08-09T09:21:02.345Z,32.50
2022-08-09T09:23:38.072Z,32.60
2022-08-09T09:26:12.388Z,31.86
2022-08-09T09:29:03.407Z,31.66
2022-08-09T09:32:06.921Z,31.16
2022-08-09T09:34:14.732Z,30.86
2022-08-09T09:36:52.925Z,30.33
2022-08-09T09:39:22.731Z,30.90
2022-08-09T09:41:51.053Z,31.78
2022-08-09T09:44:25.552Z,31.25
2022-08-09T09:46:53.763Z,30.95
2022-08-09T09:49:23.529Z,31.52
2022-08-09T09:52:33.698Z,30.62
2022-08-09T09:54:55.924Z,31.12
2022-08-09T09:58:03.460Z,30.83
2022-08-09T10:00:08.807Z,30.26
2022-08-09T10:02:38.034Z,29.86
2022-08-09T10:05:06.505Z,30.69
2022-08-09T10:07:33.205Z,30.95
2022-08-09T10:10:03.242Z,30.33
2022-08-09T10:12:31.466Z,30.74
2022-08-09T10:14:57.915Z,31.40
2022-08-09T10:17:50.802Z,30.81
2022-08-09T10:20:15.008Z,30.65
2022-08-09T10:22:41.919Z,30.37
2022-08-09T10:25:11.620Z,31.03
2022-08-09T10:27:45.106Z,30.72
2022-08-09T10:33:09.075Z,30.33
2022-08-09T10:35:55.355Z,31.16
2022-08-09T10:38:54.799Z,30.22
2022-08-09T10:41:13.652Z,29.64
2022-08-09T10:43:46.793Z,30.21
2022-08-09T10:46:21.043Z,29.79
2022-08-09T10:48:52.435Z,29.73
2022-08-09T10:51:18.813Z,29.72
2022-08-09T10:53:46.985Z,30.23
2022-08-09T10:56:23.250Z,30.16
2022-08-09T10:58:49.722Z,30.04
2022-08-09T11:03:15.686Z,29.25
2022-08-09T11:04:04.053Z,29.82
2022-08-09T11:06:34.010Z,29.89
2022-08-09T11:09:03.546Z,29.85
2022-08-09T11:11:43.666Z,29.63
2022-08-09T11:14:18.287Z,29.99
2022-08-09T11:16:54.699Z,28.44
2022-08-09T11:19:21.024Z,28.89
2022-08-09T11:22:27.166Z,28.74
2022-08-09T11:24:53.500Z,28.97
2022-08-09T11:28:05.485Z,29.13
2022-08-09T11:30:33.547Z,28.62
2022-08-09T11:32:52.463Z,29.33
2022-08-09T11:35:26.361Z,29.28
2022-08-09T11:38:01.651Z,29.47
2022-08-09T11:40:29.566Z,29.71
2022-08-09T11:42:56.079Z,30.08
2022-08-09T11:45:22.396Z,30.00
2022-08-09T11:47:49.067Z,29.40
2022-08-09T11:50:53.961Z,29.40
2022-08-09T11:53:58.998Z,28.66
2022-08-09T11:55:53.539Z,28.67
2022-08-09T11:58:32.523Z,28.91
2022-08-09T12:01:15.452Z,28.79
2022-08-09T12:03:57.773Z,28.61
2022-08-09T12:06:32.482Z,28.35
2022-08-09T12:09:01.411Z,27.61
2022-08-09T12:11:27.817Z,27.22
2022-08-09T12:14:10.258Z,27.09
2022-08-09T12:16:40.185Z,27.02
2022-08-09T12:19:08.432Z,27.16
2022-08-09T12:21:38.251Z,27.22
2022-08-09T12:24:08.722Z,26.94
2022-08-09T12:26:35.679Z,26.56
2022-08-09T12:29:29.483Z,26.69
2022-08-09T12:32:02.005Z,27.29
2022-08-09T12:34:29.685Z,26.76
2022-08-09T12:36:59.085Z,26.75
2022-08-09T12:39:42.633Z,28.10
2022-08-09T12:42:09.004Z,28.17
2022-08-09T12:44:37.424Z,28.56
2022-08-09T12:47:04.844Z,28.81
2022-08-09T12:49:31.262Z,28.94
2022-08-09T12:52:02.525Z,28.27
2022-08-09T12:54:29.313Z,28.01
2022-08-09T12:56:58.622Z,27.73
2022-08-09T12:59:25.049Z,27.57
2022-08-09T13:02:11.277Z,28.27
2022-08-09T13:04:41.416Z,27.08
2022-08-09T13:07:08.020Z,27.51
2022-08-09T13:09:38.324Z,26.89
2022-08-09T13:12:08.389Z,26.60
2022-08-09T13:14:41.250Z,27.24
2022-08-09T13:17:16.055Z,26.44
2022-08-09T13:20:10.247Z,25.69
2022-08-09T13:23:00.251Z,26.53
2022-08-09T13:25:21.081Z,26.48
2022-08-09T13:27:54.536Z,26.62
2022-08-09T13:32:09.995Z,27.74
2022-08-09T13:33:11.731Z,27.63
2022-08-09T13:36:24.827Z,27.36
2022-08-09T13:38:54.639Z,26.88
2022-08-09T13:41:51.669Z,26.91
2022-08-09T13:44:05.432Z,26.80
2022-08-09T13:47:15.980Z,26.76
2022-08-09T13:49:18.661Z,27.23
2022-08-09T13:51:58.737Z,27.59
2022-08-09T13:54:27.626Z,27.87
2022-08-09T13:56:56.721Z,27.50
2022-08-09T13:59:25.364Z,27.02
2022-08-09T14:02:00.409Z,26.79
2022-08-09T14:04:28.358Z,27.05
2022-08-09T14:06:55.284Z,27.69
2022-08-09T14:09:22.040Z,27.02
2022-08-09T14:11:48.661Z,27.49
2022-08-09T14:14:24.790Z,27.64
2022-08-09T14:16:54.446Z,27.69
2022-08-09T14:19:20.762Z,27.73
2022-08-09T14:21:48.808Z,27.41
2022-08-09T14:24:22.430Z,27.08
2022-08-09T14:27:00.148Z,27.12
2022-08-09T14:30:35.577Z,26.92
2022-08-09T14:32:19.575Z,27.80
2022-08-09T14:34:46.056Z,27.70
2022-08-09T14:37:12.351Z,27.95
2022-08-09T14:39:45.112Z,28.19
2022-08-09T14:42:29.120Z,27.81
2022-08-09T14:45:00.005Z,27.67
2022-08-09T14:47:44.822Z,29.05
2022-08-09T14:50:13.145Z,28.31
2022-08-09T14:52:42.639Z,28.14
2022-08-09T14:55:08.936Z,27.61
2022-08-09T14:57:43.557Z,27.59
2022-08-09T15:00:10.302Z,27.51
2022-08-09T15:02:36.620Z,27.46
2022-08-09T15:05:06.957Z,27.81
2022-08-09T15:07:35.398Z,28.09
2022-08-09T15:10:07.822Z,28.05
2022-08-09T15:12:40.508Z,27.33
2022-08-09T15:15:11.455Z,27.22
2022-08-09T15:17:41.926Z,27.18
2022-08-09T15:20:11.806Z,27.49
2022-08-09T15:22:46.681Z,27.62
2022-08-09T15:25:14.307Z,27.03
2022-08-09T15:27:47.871Z,26.71
2022-08-09T15:30:58.706Z,26.73
2022-08-09T15:33:23.226Z,26.92
2022-08-09T15:36:01.946Z,27.02
2022-08-09T15:38:28.619Z,27.14
2022-08-09T15:40:54.914Z,27.88
2022-08-09T15:43:21.218Z,27.12
2022-08-09T15:46:07.889Z,26.76
2022-08-09T15:48:37.410Z,27.14
2022-08-09T15:51:30.181Z,27.26
2022-08-09T15:54:04.360Z,27.18
2022-08-09T15:56:36.107Z,27.36
2022-08-09T15:59:02.542Z,27.43
2022-08-09T16:01:31.396Z,27.48
2022-08-09T16:04:02.216Z,27.65
2022-08-09T16:06:35.284Z,27.66
2022-08-09T16:09:05.122Z,27.32
2022-08-09T16:11:33.270Z,27.42
2022-08-09T16:14:02.902Z,27.82
2022-08-09T16:16:33.172Z,27.75
2022-08-09T16:19:01.066Z,27.50
2022-08-09T16:21:31.594Z,27.85
2022-08-09T16:24:02.445Z,27.87
2022-08-09T16:26:33.952Z,27.90
2022-08-09T16:29:05.856Z,27.49
2022-08-09T16:32:10.254Z,27.82
2022-08-09T16:34:18.767Z,28.04
2022-08-09T16:36:50.036Z,27.93
2022-08-09T16:39:16.369Z,29.58
2022-08-09T16:42:02.536Z,29.92
2022-08-09T16:44:31.817Z,28.50
2022-08-09T16:47:03.839Z,28.74
2022-08-09T16:50:31.986Z,29.01
2022-08-09T16:52:30.858Z,28.65
2022-08-09T16:54:57.975Z,29.85
2022-08-09T16:57:24.328Z,29.18
2022-08-09T16:59:57.682Z,29.37
2022-08-09T17:02:25.556Z,29.12
2022-08-09T17:04:51.981Z,29.54
2022-08-09T17:08:43.202Z,29.67
2022-08-09T17:10:05.674Z,29.79
2022-08-09T17:12:35.360Z,30.08
2022-08-09T17:15:01.844Z,30.89
2022-08-09T17:17:50.687Z,31.59
2022-08-09T17:20:32.809Z,30.33
2022-08-09T17:23:03.904Z,30.11
2022-08-09T17:25:31.212Z,30.66
2022-08-09T17:27:59.907Z,31.88
2022-08-09T17:30:28.737Z,33.28
2022-08-09T17:33:00.638Z,33.59
2022-08-09T17:35:31.153Z,33.65
2022-08-09T17:38:14.243Z,33.44
2022-08-09T17:40:47.339Z,34.55
2022-08-09T17:43:34.775Z,34.32
2022-08-09T17:46:06.201Z,30.65
2022-08-09T17:48:33.536Z,30.93
2022-08-09T17:51:09.447Z,33.50
2022-08-09T17:53:43.222Z,34.92
2022-08-09T17:56:14.345Z,33.49
2022-08-09T17:58:44.584Z,34.48
2022-08-09T18:01:11.062Z,35.00
2022-08-09T18:03:49.253Z,35.25
2022-08-09T18:06:31.351Z,36.07
2022-08-09T18:08:58.912Z,35.66
2022-08-09T18:11:25.395Z,35.58
2022-08-09T18:13:57.700Z,33.79
2022-08-09T18:16:30.645Z,35.57
2022-08-09T18:18:57.177Z,32.64
2022-08-09T18:21:25.986Z,33.84
2022-08-09T18:24:09.999Z,33.91
2022-08-09T18:26:46.789Z,31.91
2022-08-09T18:30:40.356Z,31.90
2022-08-09T18:32:00.842Z,31.81
2022-08-09T18:34:31.348Z,32.10
2022-08-09T18:36:58.034Z,32.96
2022-08-09T18:39:25.487Z,32.16
2022-08-09T18:41:52.789Z,32.50
2022-08-09T18:44:20.122Z,32.64
2022-08-09T18:47:08.154Z,33.12
2022-08-09T18:49:43.020Z,35.23
2022-08-09T18:52:10.086Z,33.60
2022-08-09T18:54:37.929Z,35.16
2022-08-09T18:57:05.163Z,37.79
2022-08-09T18:59:37.329Z,38.44
2022-08-09T19:02:10.304Z,36.87
2022-08-09T19:04:41.093Z,39.39
2022-08-09T19:07:14.159Z,37.76
2022-08-09T19:10:14.815Z,40.28
2022-08-09T19:12:29.125Z,40.58
2022-08-09T19:14:55.496Z,40.75
2022-08-09T19:17:22.846Z,40.64
2022-08-09T19:19:49.148Z,40.61
2022-08-09T19:22:25.059Z,41.93
2022-08-09T19:25:09.635Z,41.17
2022-08-09T19:27:39.837Z,43.13
2022-08-09T19:30:23.790Z,43.07
2022-08-09T19:32:53.112Z,41.87
2022-08-09T19:35:19.839Z,43.53
2022-08-09T19:37:56.394Z,43.29
2022-08-09T19:40:24.301Z,43.05
2022-08-09T19:43:01.752Z,42.18
2022-08-09T19:45:28.332Z,41.86
2022-08-09T19:48:06.777Z,43.63
2022-08-09T19:50:48.831Z,43.51
2022-08-09T19:53:17.924Z,40.91
2022-08-09T19:56:05.907Z,42.27
2022-08-09T19:58:33.072Z,42.99
2022-08-09T20:00:59.865Z,42.35
2022-08-09T20:04:18.263Z,43.56
2022-08-09T20:06:23.853Z,41.23
2022-08-09T20:08:56.685Z,42.99
2022-08-09T20:11:26.128Z,44.49
2022-08-09T20:13:54.256Z,45.50
2022-08-09T20:16:32.901Z,44.34
2022-08-09T20:19:48.599Z,44.44
2022-08-09T20:21:57.235Z,44.87
2022-08-09T20:24:29.446Z,44.81
2022-08-09T20:27:00.945Z,43.95
2022-08-09T20:29:32.494Z,43.43
2022-08-09T20:32:28.935Z,43.90
2022-08-09T20:34:50.692Z,42.93
2022-08-09T20:37:17.761Z,43.50
2022-08-09T20:40:17.311Z,43.31
2022-08-09T20:42:35.357Z,44.85
2022-08-09T20:46:01.508Z,45.13
2022-08-09T20:47:50.695Z,44.90
2022-08-09T20:50:47.789Z,44.98
2022-08-09T20:53:03.270Z,44.98
2022-08-09T20:55:29.608Z,45.12
2022-08-09T20:58:20.185Z,44.56
2022-08-09T21:01:02.187Z,45.19
2022-08-09T21:03:39.146Z,46.05
2022-08-09T21:06:19.546Z,46.15
2022-08-09T21:08:49.778Z,46.28
2022-08-09T21:14:02.996Z,45.84
2022-08-09T21:16:30.576Z,44.45
2022-08-09T21:20:04.192Z,45.05
2022-08-09T21:21:56.010Z,44.79
2022-08-09T21:24:28.344Z,45.41
2022-08-09T21:26:55.697Z,45.15
2022-08-09T21:29:22.760Z,45.80
2022-08-09T21:31:49.831Z,46.68
2022-08-09T21:34:28.648Z,45.30
2022-08-09T21:36:56.572Z,45.39
2022-08-09T21:39:28.317Z,45.41
2022-08-09T21:42:10.623Z,46.34
2022-08-09T21:44:37.945Z,46.00
2022-08-09T21:47:04.381Z,46.51
2022-08-09T21:49:40.542Z,46.34
2022-08-09T21:52:16.970Z,47.88
2022-08-09T21:54:46.171Z,47.47
2022-08-09T21:57:37.432Z,46.95
2022-08-09T21:59:59.009Z,47.36
2022-08-09T22:02:36.044Z,47.63
2022-08-09T22:05:16.910Z,47.35
2022-08-09T22:07:52.165Z,47.68
2022-08-09T22:10:22.972Z,48.27
2022-08-09T22:12:50.210Z,48.39
2022-08-09T22:15:16.940Z,48.61
2022-08-09T22:17:46.601Z,48.12
2022-08-09T22:20:21.545Z,48.11
2022-08-09T22:22:48.730Z,48.45
2022-08-09T22:26:07.872Z,49.58
2022-08-09T22:28:01.402Z,48.25
2022-08-09T22:30:33.700Z,48.13
2022-08-09T22:33:00.028Z,48.02
2022-08-09T22:36:02.530Z,47.79
2022-08-09T22:38:14.716Z,48.97
2022-08-09T22:40:48.774Z,49.37
2022-08-09T22:44:00.814Z,49.82
2022-08-09T22:48:10.966Z,49.76
2022-08-09T22:49:01.785Z,49.27
2022-08-09T22:51:31.880Z,49.65
2022-08-09T22:54:02.656Z,50.26
2022-08-09T22:56:34.361Z,50.78
2022-08-09T22:59:00.970Z,50.59
2022-08-09T23:01:32.530Z,50.74
2022-08-09T23:04:05.423Z,50.59
2022-08-09T23:06:52.646Z,51.00
2022-08-09T23:09:18.970Z,50.64
2022-08-09T23:11:45.262Z,50.87
2022-08-09T23:14:17.424Z,50.49
2022-08-09T23:16:43.989Z,50.74
2022-08-09T23:19:10.273Z,50.97
2022-08-09T23:21:38.540Z,50.26
2022-08-09T23:24:07.173Z,50.42
2022-08-09T23:26:33.700Z,49.99
2022-08-09T23:28:59.983Z,50.23
2022-08-09T23:31:26.427Z,50.87
2022-08-09T23:33:52.735Z,51.59
2022-08-09T23:36:19.021Z,51.44
2022-08-09T23:38:49.226Z,52.40
2022-08-09T23:41:27.441Z,52.95
2022-08-09T23:43:55.463Z,52.88
2022-08-09T23:46:21.781Z,53.01
2022-08-09T23:48:48.076Z,52.57
2022-08-09T23:51:14.382Z,52.46
2022-08-09T23:53:40.677Z,52.23
2022-08-09T23:56:07.062Z,52.39
2022-08-09T23:58:33.371Z,52.07
